sensor_id;sensor_type;location;lat;lon;timestamp;P1;durP1;ratioP1;P2;durP2;ratioP2
1164;SDS011;571;50.930;6.926;2022-11-21T03:47:09;8.43;;;3.67;;
1164;SDS011;571;50.930;6.926;2022-11-21T03:49:36;5.43;;;3.50;;
1164;SDS011;571;50.930;6.926;2022-11-21T03:52:03;6.47;;;3.80;;
1164;SDS011;571;50.930;6.926;2022-11-21T03:54:29;6.63;;;3.47;;
1164;SDS011;571;50.930;6.926;2022-11-21T03:56:56;5.20;;;3.50;;
1164;SDS011;571;50.930;6.926;2022-11-21T03:59:23;7.17;;;3.87;;
1164;SDS011;571;50.930;6.926;2022-11-21T04:01:50;11.20;;;4.33;;
1164;SDS011;571;50.930;6.926;2022-11-21T04:04:18;5.43;;;4.43;;
1164;SDS011;571;50.930;6.926;2022-11-21T04:06:45;9.20;;;4.17;;
1164;SDS011;571;50.930;6.926;2022-11-21T04:09:12;9.03;;;4.10;;
1164;SDS011;571;50.930;6.926;2022-11-21T04:11:38;6.67;;;4.43;;
1164;SDS011;571;50.930;6.926;2022-11-21T04:14:05;10.03;;;4.67;;
1164;SDS011;571;50.930;6.926;2022-11-21T04:16:32;11.03;;;5.23;;
1164;SDS011;571;50.930;6.926;2022-11-21T04:18:59;11.00;;;4.50;;
1164;SDS011;571;50.930;6.926;2022-11-21T04:21:27;8.40;;;4.20;;
1164;SDS011;571;50.930;6.926;2022-11-21T04:23:53;7.07;;;4.60;;
1164;SDS011;571;50.930;6.926;2022-11-21T04:26:20;8.00;;;5.10;;
1164;SDS011;571;50.930;6.926;2022-11-21T04:28:47;10.17;;;5.30;;
1164;SDS011;571;50.930;6.926;2022-11-21T04:31:13;7.70;;;5.00;;
1164;SDS011;571;50.930;6.926;2022-11-21T04:33:40;9.33;;;6.40;;
1164;SDS011;571;50.930;6.926;2022-11-21T04:36:07;12.20;;;5.30;;
1164;SDS011;571;50.930;6.926;2022-11-21T04:38:35;10.67;;;5.60;;
1164;SDS011;571;50.930;6.926;2022-11-21T04:41:02;8.63;;;5.70;;
1164;SDS011;571;50.930;6.926;2022-11-21T04:43:29;11.40;;;6.30;;
1164;SDS011;571;50.930;6.926;2022-11-21T04:45:56;9.40;;;6.57;;
1164;SDS011;571;50.930;6.926;2022-11-21T04:48:23;10.80;;;5.43;;
1164;SDS011;571;50.930;6.926;2022-11-21T04:50:49;9.83;;;6.60;;
1164;SDS011;571;50.930;6.926;2022-11-21T04:53:16;7.43;;;6.53;;
1164;SDS011;571;50.930;6.926;2022-11-21T04:55:44;8.67;;;6.30;;
1164;SDS011;571;50.930;6.926;2022-11-21T04:58:11;9.70;;;6.60;;
1164;SDS011;571;50.930;6.926;2022-11-21T05:00:37;13.53;;;6.20;;
1164;SDS011;571;50.930;6.926;2022-11-21T05:03:04;7.70;;;6.30;;
1164;SDS011;571;50.930;6.926;2022-11-21T05:05:32;12.53;;;7.50;;
1164;SDS011;571;50.930;6.926;2022-11-21T05:07:59;7.17;;;5.93;;
1164;SDS011;571;50.930;6.926;2022-11-21T05:10:25;9.67;;;6.53;;
1164;SDS011;571;50.930;6.926;2022-11-21T05:12:57;13.97;;;7.07;;
1164;SDS011;571;50.930;6.926;2022-11-21T05:15:41;15.87;;;7.77;;
1164;SDS011;571;50.930;6.926;2022-11-21T05:18:08;14.90;;;5.80;;
1164;SDS011;571;50.930;6.926;2022-11-21T05:20:35;10.93;;;7.23;;
1164;SDS011;571;50.930;6.926;2022-11-21T05:23:01;11.27;;;7.47;;
1164;SDS011;571;50.930;6.926;2022-11-21T05:25:28;8.53;;;7.63;;
1164;SDS011;571;50.930;6.926;2022-11-21T05:27:56;15.87;;;8.30;;
1164;SDS011;571;50.930;6.926;2022-11-21T05:30:23;11.17;;;8.70;;
1164;SDS011;571;50.930;6.926;2022-11-21T05:32:50;20.70;;;8.80;;
1164;SDS011;571;50.930;6.926;2022-11-21T05:35:16;17.37;;;9.97;;
1164;SDS011;571;50.930;6.926;2022-11-21T05:37:43;11.20;;;9.20;;
1164;SDS011;571;50.930;6.926;2022-11-21T05:40:10;9.73;;;8.00;;
1164;SDS011;571;50.930;6.926;2022-11-21T05:42:37;9.57;;;8.63;;
1164;SDS011;571;50.930;6.926;2022-11-21T05:45:23;11.13;;;9.23;;
1164;SDS011;571;50.930;6.926;2022-11-21T05:47:49;12.93;;;9.17;;
1164;SDS011;571;50.930;6.926;2022-11-21T05:50:16;10.90;;;7.80;;
1164;SDS011;571;50.930;6.926;2022-11-21T05:52:43;12.40;;;8.33;;
1164;SDS011;571;50.930;6.926;2022-11-21T05:55:10;9.97;;;8.40;;
1164;SDS011;571;50.930;6.926;2022-11-21T05:57:37;8.50;;;7.10;;
1164;SDS011;571;50.930;6.926;2022-11-21T06:00:04;15.60;;;8.00;;
1164;SDS011;571;50.930;6.926;2022-11-21T06:02:32;11.30;;;8.10;;
1164;SDS011;571;50.930;6.926;2022-11-21T06:05:16;12.20;;;7.77;;
1164;SDS011;571;50.930;6.926;2022-11-21T06:07:43;8.70;;;7.80;;
1164;SDS011;571;50.930;6.926;2022-11-21T06:10:10;10.23;;;7.37;;
1164;SDS011;571;50.930;6.926;2022-11-21T06:12:37;11.73;;;8.77;;
1164;SDS011;571;50.930;6.926;2022-11-21T06:15:03;12.63;;;8.00;;
1164;SDS011;571;50.930;6.926;2022-11-21T06:17:31;12.10;;;8.50;;
1164;SDS011;571;50.930;6.926;2022-11-21T06:19:59;13.33;;;8.73;;
1164;SDS011;571;50.930;6.926;2022-11-21T06:22:26;14.33;;;9.47;;
1164;SDS011;571;50.930;6.926;2022-11-21T06:24:52;12.03;;;9.50;;
1164;SDS011;571;50.930;6.926;2022-11-21T06:27:19;16.67;;;9.90;;
1164;SDS011;571;50.930;6.926;2022-11-21T06:29:46;12.03;;;9.97;;
1164;SDS011;571;50.930;6.926;2022-11-21T06:32:12;11.40;;;10.20;;
1164;SDS011;571;50.930;6.926;2022-11-21T06:34:40;9.83;;;8.73;;
1164;SDS011;571;50.930;6.926;2022-11-21T06:37:07;17.43;;;8.40;;
1164;SDS011;571;50.930;6.926;2022-11-21T06:39:34;10.27;;;8.63;;
1164;SDS011;571;50.930;6.926;2022-11-21T06:42:00;11.27;;;8.47;;
1164;SDS011;571;50.930;6.926;2022-11-21T06:44:27;9.13;;;7.40;;
1164;SDS011;571;50.930;6.926;2022-11-21T06:46:54;9.13;;;7.40;;
1164;SDS011;571;50.930;6.926;2022-11-21T06:49:21;8.43;;;6.63;;
1164;SDS011;571;50.930;6.926;2022-11-21T06:51:49;8.83;;;6.80;;
1164;SDS011;571;50.930;6.926;2022-11-21T06:54:16;8.37;;;6.53;;
1164;SDS011;571;50.930;6.926;2022-11-21T06:56:43;10.40;;;6.93;;
1164;SDS011;571;50.930;6.926;2022-11-21T06:59:10;11.07;;;7.10;;
1164;SDS011;571;50.930;6.926;2022-11-21T07:01:36;8.70;;;6.50;;
1164;SDS011;571;50.930;6.926;2022-11-21T07:04:03;9.63;;;6.27;;
1164;SDS011;571;50.930;6.926;2022-11-21T07:06:30;8.07;;;6.90;;
1164;SDS011;571;50.930;6.926;2022-11-21T07:08:58;7.50;;;5.03;;
1164;SDS011;571;50.930;6.926;2022-11-21T07:11:24;13.23;;;6.30;;
1164;SDS011;571;50.930;6.926;2022-11-21T07:13:51;15.07;;;6.77;;
1164;SDS011;571;50.930;6.926;2022-11-21T07:16:17;8.53;;;5.70;;
1164;SDS011;571;50.930;6.926;2022-11-21T07:18:44;8.20;;;7.40;;
1164;SDS011;571;50.930;6.926;2022-11-21T07:21:11;13.87;;;7.33;;
1164;SDS011;571;50.930;6.926;2022-11-21T07:23:38;8.33;;;6.20;;
1164;SDS011;571;50.930;6.926;2022-11-21T07:26:07;8.80;;;7.20;;
1164;SDS011;571;50.930;6.926;2022-11-21T07:28:35;8.80;;;6.13;;
1164;SDS011;571;50.930;6.926;2022-11-21T07:31:02;12.10;;;6.80;;
1164;SDS011;571;50.930;6.926;2022-11-21T07:33:29;13.30;;;7.77;;
1164;SDS011;571;50.930;6.926;2022-11-21T07:35:55;10.67;;;7.60;;
1164;SDS011;571;50.930;6.926;2022-11-21T07:38:23;10.70;;;6.30;;
1164;SDS011;571;50.930;6.926;2022-11-21T07:40:49;10.80;;;7.43;;
1164;SDS011;571;50.930;6.926;2022-11-21T07:43:18;13.73;;;7.23;;
1164;SDS011;571;50.930;6.926;2022-11-21T07:45:45;8.07;;;5.70;;
1164;SDS011;571;50.930;6.926;2022-11-21T07:48:12;11.67;;;7.60;;
1164;SDS011;571;50.930;6.926;2022-11-21T07:50:39;8.53;;;7.40;;
1164;SDS011;571;50.930;6.926;2022-11-21T07:53:06;12.80;;;7.57;;
1164;SDS011;571;50.930;6.926;2022-11-21T07:55:35;9.57;;;7.10;;
1164;SDS011;571;50.930;6.926;2022-11-21T07:58:02;8.07;;;6.50;;
1164;SDS011;571;50.930;6.926;2022-11-21T08:00:32;8.50;;;6.30;;
1164;SDS011;571;50.930;6.926;2022-11-21T08:03:00;9.40;;;8.00;;
1164;SDS011;571;50.930;6.926;2022-11-21T08:05:26;8.60;;;7.33;;
1164;SDS011;571;50.930;6.926;2022-11-21T08:07:53;10.97;;;6.67;;
1164;SDS011;571;50.930;6.926;2022-11-21T08:10:23;8.50;;;6.43;;
1164;SDS011;571;50.930;6.926;2022-11-21T08:12:51;11.23;;;6.37;;
1164;SDS011;571;50.930;6.926;2022-11-21T08:15:18;9.63;;;6.60;;
1164;SDS011;571;50.930;6.926;2022-11-21T08:17:46;6.97;;;6.37;;
1164;SDS011;571;50.930;6.926;2022-11-21T08:20:13;9.93;;;6.60;;
1164;SDS011;571;50.930;6.926;2022-11-21T08:22:40;8.40;;;6.37;;
1164;SDS011;571;50.930;6.926;2022-11-21T08:25:08;11.47;;;7.43;;
1164;SDS011;571;50.930;6.926;2022-11-21T08:27:35;7.33;;;6.63;;
1164;SDS011;571;50.930;6.926;2022-11-21T08:30:04;6.83;;;6.27;;
1164;SDS011;571;50.930;6.926;2022-11-21T08:32:31;9.87;;;7.23;;
1164;SDS011;571;50.930;6.926;2022-11-21T08:35:00;8.87;;;6.83;;
1164;SDS011;571;50.930;6.926;2022-11-21T08:37:27;7.80;;;7.10;;
1164;SDS011;571;50.930;6.926;2022-11-21T08:39:54;7.13;;;6.43;;
1164;SDS011;571;50.930;6.926;2022-11-21T08:42:22;9.70;;;7.33;;
1164;SDS011;571;50.930;6.926;2022-11-21T08:44:49;15.97;;;9.60;;
1164;SDS011;571;50.930;6.926;2022-11-21T08:47:16;13.17;;;9.00;;
1164;SDS011;571;50.930;6.926;2022-11-21T08:49:43;9.07;;;8.27;;
1164;SDS011;571;50.930;6.926;2022-11-21T08:52:11;9.73;;;8.03;;
1164;SDS011;571;50.930;6.926;2022-11-21T08:54:38;10.67;;;9.17;;
1164;SDS011;571;50.930;6.926;2022-11-21T08:57:04;13.30;;;8.63;;
1164;SDS011;571;50.930;6.926;2022-11-21T08:59:31;14.47;;;8.70;;
1164;SDS011;571;50.930;6.926;2022-11-21T09:01:58;12.37;;;8.40;;
1164;SDS011;571;50.930;6.926;2022-11-21T09:04:24;10.27;;;8.60;;
1164;SDS011;571;50.930;6.926;2022-11-21T09:06:51;9.83;;;8.60;;
1164;SDS011;571;50.930;6.926;2022-11-21T09:09:19;9.43;;;8.40;;
1164;SDS011;571;50.930;6.926;2022-11-21T09:11:46;10.00;;;9.10;;
1164;SDS011;571;50.930;6.926;2022-11-21T09:14:13;16.00;;;8.90;;
1164;SDS011;571;50.930;6.926;2022-11-21T09:16:58;8.90;;;8.00;;
1164;SDS011;571;50.930;6.926;2022-11-21T09:19:42;11.43;;;9.10;;
1164;SDS011;571;50.930;6.926;2022-11-21T09:22:12;11.60;;;8.00;;
1164;SDS011;571;50.930;6.926;2022-11-21T09:24:40;9.47;;;7.60;;
1164;SDS011;571;50.930;6.926;2022-11-21T09:27:07;13.07;;;8.40;;
1164;SDS011;571;50.930;6.926;2022-11-21T09:29:33;7.97;;;7.20;;
1164;SDS011;571;50.930;6.926;2022-11-21T09:32:00;8.67;;;7.87;;
1164;SDS011;571;50.930;6.926;2022-11-21T09:34:27;7.90;;;7.10;;
1164;SDS011;571;50.930;6.926;2022-11-21T09:36:55;9.20;;;7.80;;
1164;SDS011;571;50.930;6.926;2022-11-21T09:39:22;11.73;;;8.30;;
1164;SDS011;571;50.930;6.926;2022-11-21T09:41:52;9.07;;;8.20;;
1164;SDS011;571;50.930;6.926;2022-11-21T09:44:33;9.87;;;8.43;;
1164;SDS011;571;50.930;6.926;2022-11-21T09:47:10;9.67;;;8.33;;
1164;SDS011;571;50.930;6.926;2022-11-21T09:49:44;9.03;;;7.40;;
1164;SDS011;571;50.930;6.926;2022-11-21T09:52:14;9.10;;;7.27;;
1164;SDS011;571;50.930;6.926;2022-11-21T09:54:45;11.63;;;7.60;;
1164;SDS011;571;50.930;6.926;2022-11-21T09:57:17;13.43;;;7.23;;
1164;SDS011;571;50.930;6.926;2022-11-21T09:59:47;8.33;;;7.20;;
1164;SDS011;571;50.930;6.926;2022-11-21T10:02:15;9.23;;;6.37;;
1164;SDS011;571;50.930;6.926;2022-11-21T10:04:45;7.57;;;5.90;;
1164;SDS011;571;50.930;6.926;2022-11-21T10:07:14;5.47;;;4.97;;
1164;SDS011;571;50.930;6.926;2022-11-21T10:09:51;6.47;;;5.87;;
1164;SDS011;571;50.930;6.926;2022-11-21T10:12:42;8.00;;;5.87;;
1164;SDS011;571;50.930;6.926;2022-11-21T10:15:19;9.20;;;6.17;;
1164;SDS011;571;50.930;6.926;2022-11-21T10:18:01;8.10;;;6.00;;
1164;SDS011;571;50.930;6.926;2022-11-21T10:20:46;5.77;;;5.20;;
1164;SDS011;571;50.930;6.926;2022-11-21T10:23:31;4.43;;;4.00;;
1164;SDS011;571;50.930;6.926;2022-11-21T10:26:08;8.17;;;4.47;;
1164;SDS011;571;50.930;6.926;2022-11-21T10:28:49;6.10;;;4.87;;
1164;SDS011;571;50.930;6.926;2022-11-21T10:31:19;6.50;;;4.57;;
1164;SDS011;571;50.930;6.926;2022-11-21T10:33:47;6.63;;;3.97;;
1164;SDS011;571;50.930;6.926;2022-11-21T10:36:20;6.83;;;4.07;;
1164;SDS011;571;50.930;6.926;2022-11-21T10:38:50;3.77;;;3.47;;
1164;SDS011;571;50.930;6.926;2022-11-21T10:41:35;4.43;;;4.03;;
1164;SDS011;571;50.930;6.926;2022-11-21T10:44:08;3.80;;;3.50;;
1164;SDS011;571;50.930;6.926;2022-11-21T10:47:00;3.43;;;3.00;;
1164;SDS011;571;50.930;6.926;2022-11-21T10:49:28;6.63;;;3.50;;
1164;SDS011;571;50.930;6.926;2022-11-21T10:51:59;5.27;;;3.60;;
1164;SDS011;571;50.930;6.926;2022-11-21T10:54:31;6.37;;;2.70;;
1164;SDS011;571;50.930;6.926;2022-11-21T10:56:58;3.37;;;3.07;;
1164;SDS011;571;50.930;6.926;2022-11-21T10:59:33;3.60;;;2.93;;
1164;SDS011;571;50.930;6.926;2022-11-21T11:02:00;7.80;;;2.53;;
1164;SDS011;571;50.930;6.926;2022-11-21T11:04:29;2.57;;;2.30;;
1164;SDS011;571;50.930;6.926;2022-11-21T11:06:58;3.73;;;2.13;;
1164;SDS011;571;50.930;6.926;2022-11-21T11:09:45;2.47;;;2.10;;
1164;SDS011;571;50.930;6.926;2022-11-21T11:12:22;7.87;;;1.97;;
1164;SDS011;571;50.930;6.926;2022-11-21T11:15:19;1.60;;;1.43;;
1164;SDS011;571;50.930;6.926;2022-11-21T11:17:48;6.43;;;2.73;;
1164;SDS011;571;50.930;6.926;2022-11-21T11:23:16;5.57;;;2.00;;
1164;SDS011;571;50.930;6.926;2022-11-21T11:25:51;7.43;;;2.20;;
1164;SDS011;571;50.930;6.926;2022-11-21T11:28:19;5.67;;;2.30;;
1164;SDS011;571;50.930;6.926;2022-11-21T11:30:49;3.47;;;1.33;;
1164;SDS011;571;50.930;6.926;2022-11-21T11:33:30;1.00;;;0.93;;
1164;SDS011;571;50.930;6.926;2022-11-21T11:36:03;3.30;;;1.20;;
1164;SDS011;571;50.930;6.926;2022-11-21T11:38:40;2.00;;;1.30;;
1164;SDS011;571;50.930;6.926;2022-11-21T11:41:12;4.87;;;1.53;;
1164;SDS011;571;50.930;6.926;2022-11-21T11:43:51;3.90;;;1.33;;
1164;SDS011;571;50.930;6.926;2022-11-21T11:46:48;1.10;;;1.00;;
1164;SDS011;571;50.930;6.926;2022-11-21T11:49:42;1.53;;;1.10;;
1164;SDS011;571;50.930;6.926;2022-11-21T11:52:30;1.93;;;1.00;;
1164;SDS011;571;50.930;6.926;2022-11-21T11:55:01;3.77;;;1.27;;
1164;SDS011;571;50.930;6.926;2022-11-21T11:57:31;2.43;;;1.27;;
1164;SDS011;571;50.930;6.926;2022-11-21T12:00:05;2.60;;;1.33;;
1164;SDS011;571;50.930;6.926;2022-11-21T12:02:50;2.17;;;1.40;;
1164;SDS011;571;50.930;6.926;2022-11-21T12:05:24;3.50;;;1.17;;
1164;SDS011;571;50.930;6.926;2022-11-21T12:07:57;3.63;;;1.03;;
1164;SDS011;571;50.930;6.926;2022-11-21T12:10:32;3.60;;;1.40;;
1164;SDS011;571;50.930;6.926;2022-11-21T12:13:24;2.23;;;1.10;;
1164;SDS011;571;50.930;6.926;2022-11-21T12:15:53;2.43;;;1.10;;
1164;SDS011;571;50.930;6.926;2022-11-21T12:18:28;3.63;;;1.00;;
1164;SDS011;571;50.930;6.926;2022-11-21T12:20:59;2.47;;;1.67;;
1164;SDS011;571;50.930;6.926;2022-11-21T12:23:35;2.30;;;1.07;;
1164;SDS011;571;50.930;6.926;2022-11-21T12:26:12;1.27;;;1.17;;
1164;SDS011;571;50.930;6.926;2022-11-21T12:28:51;4.40;;;1.40;;
1164;SDS011;571;50.930;6.926;2022-11-21T12:31:30;2.40;;;1.37;;
1164;SDS011;571;50.930;6.926;2022-11-21T12:34:11;2.90;;;1.50;;
1164;SDS011;571;50.930;6.926;2022-11-21T12:36:48;2.10;;;1.43;;
1164;SDS011;571;50.930;6.926;2022-11-21T12:39:33;3.17;;;1.40;;
1164;SDS011;571;50.930;6.926;2022-11-21T12:42:25;2.70;;;1.47;;
1164;SDS011;571;50.930;6.926;2022-11-21T12:45:22;3.63;;;1.47;;
1164;SDS011;571;50.930;6.926;2022-11-21T12:48:13;1.30;;;1.20;;
1164;SDS011;571;50.930;6.926;2022-11-21T12:51:11;6.13;;;2.10;;
1164;SDS011;571;50.930;6.926;2022-11-21T12:54:18;6.23;;;1.70;;
1164;SDS011;571;50.930;6.926;2022-11-21T12:57:07;3.77;;;1.90;;
1164;SDS011;571;50.930;6.926;2022-11-21T12:59:39;1.80;;;1.23;;
1164;SDS011;571;50.930;6.926;2022-11-21T13:02:29;3.40;;;1.67;;
1164;SDS011;571;50.930;6.926;2022-11-21T13:05:05;2.63;;;2.20;;
1164;SDS011;571;50.930;6.926;2022-11-21T13:07:38;1.93;;;1.33;;
1164;SDS011;571;50.930;6.926;2022-11-21T13:10:10;2.57;;;1.40;;
1164;SDS011;571;50.930;6.926;2022-11-21T13:12:40;4.43;;;1.47;;
1164;SDS011;571;50.930;6.926;2022-11-21T13:15:14;2.70;;;1.70;;
1164;SDS011;571;50.930;6.926;2022-11-21T13:17:48;4.57;;;1.47;;
1164;SDS011;571;50.930;6.926;2022-11-21T13:20:26;5.07;;;1.40;;
1164;SDS011;571;50.930;6.926;2022-11-21T13:22:58;5.30;;;1.47;;
1164;SDS011;571;50.930;6.926;2022-11-21T13:25:35;1.23;;;1.03;;
1164;SDS011;571;50.930;6.926;2022-11-21T13:33:56;6.20;;;1.17;;
1164;SDS011;571;50.930;6.926;2022-11-21T13:36:33;3.07;;;1.77;;
1164;SDS011;571;50.930;6.926;2022-11-21T13:42:08;2.70;;;1.23;;
1164;SDS011;571;50.930;6.926;2022-11-21T13:44:54;2.70;;;1.47;;
1164;SDS011;571;50.930;6.926;2022-11-21T13:53:33;2.17;;;1.20;;
1164;SDS011;571;50.930;6.926;2022-11-21T13:56:27;1.47;;;1.30;;
1164;SDS011;571;50.930;6.926;2022-11-21T13:59:07;3.50;;;1.77;;
1164;SDS011;571;50.930;6.926;2022-11-21T14:01:51;2.23;;;1.33;;
1164;SDS011;571;50.930;6.926;2022-11-21T14:04:47;2.97;;;1.40;;
1164;SDS011;571;50.930;6.926;2022-11-21T14:07:26;3.47;;;1.33;;
1164;SDS011;571;50.930;6.926;2022-11-21T14:09:55;2.37;;;1.17;;
1164;SDS011;571;50.930;6.926;2022-11-21T14:12:27;3.33;;;1.10;;
1164;SDS011;571;50.930;6.926;2022-11-21T14:15:07;5.30;;;1.80;;
1164;SDS011;571;50.930;6.926;2022-11-21T14:17:50;3.30;;;1.83;;
1164;SDS011;571;50.930;6.926;2022-11-21T14:20:20;5.53;;;1.97;;
1164;SDS011;571;50.930;6.926;2022-11-21T14:22:53;2.63;;;2.07;;
1164;SDS011;571;50.930;6.926;2022-11-21T14:25:23;3.83;;;1.93;;
1164;SDS011;571;50.930;6.926;2022-11-21T14:28:03;3.20;;;1.53;;
1164;SDS011;571;50.930;6.926;2022-11-21T14:30:34;5.73;;;1.60;;
1164;SDS011;571;50.930;6.926;2022-11-21T14:35:58;4.13;;;1.53;;
1164;SDS011;571;50.930;6.926;2022-11-21T14:38:32;4.53;;;1.63;;
1164;SDS011;571;50.930;6.926;2022-11-21T14:41:23;5.53;;;1.80;;
1164;SDS011;571;50.930;6.926;2022-11-21T14:44:03;2.90;;;1.80;;
1164;SDS011;571;50.930;6.926;2022-11-21T14:46:39;5.47;;;2.07;;
1164;SDS011;571;50.930;6.926;2022-11-21T14:49:08;5.30;;;2.10;;
1164;SDS011;571;50.930;6.926;2022-11-21T14:51:50;9.10;;;2.20;;
1164;SDS011;571;50.930;6.926;2022-11-21T14:54:27;2.83;;;1.67;;
1164;SDS011;571;50.930;6.926;2022-11-21T14:56:58;4.50;;;1.23;;
1164;SDS011;571;50.930;6.926;2022-11-21T14:59:29;3.90;;;1.60;;
1164;SDS011;571;50.930;6.926;2022-11-21T15:02:02;4.53;;;2.00;;
1164;SDS011;571;50.930;6.926;2022-11-21T15:29:18;8.10;;;1.87;;
1164;SDS011;571;50.930;6.926;2022-11-21T15:35:47;6.83;;;1.70;;
1164;SDS011;571;50.930;6.926;2022-11-21T15:38:39;3.50;;;1.87;;
1164;SDS011;571;50.930;6.926;2022-11-21T15:48:42;2.80;;;1.60;;
1164;SDS011;571;50.930;6.926;2022-11-21T15:55:17;5.67;;;1.63;;
1164;SDS011;571;50.930;6.926;2022-11-21T16:20:17;2.50;;;1.83;;
1164;SDS011;571;50.930;6.926;2022-11-21T16:22:44;3.77;;;1.87;;
1164;SDS011;571;50.930;6.926;2022-11-21T16:25:11;2.80;;;2.10;;
1164;SDS011;571;50.930;6.926;2022-11-21T16:27:38;3.40;;;2.63;;
1164;SDS011;571;50.930;6.926;2022-11-21T16:30:08;3.57;;;2.27;;
1164;SDS011;571;50.930;6.926;2022-11-21T16:32:36;3.13;;;1.80;;
1164;SDS011;571;50.930;6.926;2022-11-21T16:35:03;5.93;;;2.70;;
1164;SDS011;571;50.930;6.926;2022-11-21T16:37:33;7.30;;;2.70;;
1164;SDS011;571;50.930;6.926;2022-11-21T16:40:00;8.50;;;2.60;;
1164;SDS011;571;50.930;6.926;2022-11-21T16:42:26;6.40;;;2.57;;
1164;SDS011;571;50.930;6.926;2022-11-21T16:44:53;12.17;;;2.50;;
1164;SDS011;571;50.930;6.926;2022-11-21T16:47:20;2.30;;;2.00;;
1164;SDS011;571;50.930;6.926;2022-11-21T16:49:47;4.23;;;2.27;;
1164;SDS011;571;50.930;6.926;2022-11-21T16:52:13;3.63;;;2.87;;
1164;SDS011;571;50.930;6.926;2022-11-21T16:54:43;7.33;;;2.80;;
1164;SDS011;571;50.930;6.926;2022-11-21T16:57:10;6.03;;;2.57;;
1164;SDS011;571;50.930;6.926;2022-11-21T16:59:36;3.37;;;2.27;;
1164;SDS011;571;50.930;6.926;2022-11-21T17:02:03;6.80;;;2.60;;
1164;SDS011;571;50.930;6.926;2022-11-21T17:04:30;5.87;;;2.50;;
1164;SDS011;571;50.930;6.926;2022-11-21T17:06:58;5.60;;;2.60;;
1164;SDS011;571;50.930;6.926;2022-11-21T17:09:25;4.50;;;1.90;;
1164;SDS011;571;50.930;6.926;2022-11-21T17:11:56;4.77;;;2.70;;
1164;SDS011;571;50.930;6.926;2022-11-21T17:14:23;8.00;;;3.47;;
1164;SDS011;571;50.930;6.926;2022-11-21T17:16:50;3.73;;;2.73;;
1164;SDS011;571;50.930;6.926;2022-11-21T17:19:17;6.70;;;2.33;;
1164;SDS011;571;50.930;6.926;2022-11-21T17:21:45;6.13;;;2.30;;
1164;SDS011;571;50.930;6.926;2022-11-21T17:24:11;4.83;;;2.77;;
1164;SDS011;571;50.930;6.926;2022-11-21T17:26:38;4.70;;;2.17;;
1164;SDS011;571;50.930;6.926;2022-11-21T17:29:07;3.20;;;2.00;;
1164;SDS011;571;50.930;6.926;2022-11-21T17:31:34;6.30;;;2.60;;
1164;SDS011;571;50.930;6.926;2022-11-21T17:34:01;8.03;;;2.83;;
1164;SDS011;571;50.930;6.926;2022-11-21T17:36:29;6.83;;;1.93;;
1164;SDS011;571;50.930;6.926;2022-11-21T17:38:58;4.90;;;2.40;;
1164;SDS011;571;50.930;6.926;2022-11-21T17:41:25;3.10;;;2.03;;
1164;SDS011;571;50.930;6.926;2022-11-21T17:43:52;4.93;;;2.50;;
1164;SDS011;571;50.930;6.926;2022-11-21T17:46:21;6.27;;;2.93;;
1164;SDS011;571;50.930;6.926;2022-11-21T17:48:49;4.70;;;2.70;;
1164;SDS011;571;50.930;6.926;2022-11-21T17:51:17;9.83;;;2.63;;
1164;SDS011;571;50.930;6.926;2022-11-21T17:53:46;5.43;;;2.30;;
1164;SDS011;571;50.930;6.926;2022-11-21T17:56:14;5.50;;;2.80;;
1164;SDS011;571;50.930;6.926;2022-11-21T17:58:42;3.90;;;2.77;;
1164;SDS011;571;50.930;6.926;2022-11-21T18:01:10;8.27;;;2.47;;
1164;SDS011;571;50.930;6.926;2022-11-21T18:03:43;4.23;;;2.50;;
1164;SDS011;571;50.930;6.926;2022-11-21T18:06:11;3.30;;;2.30;;
1164;SDS011;571;50.930;6.926;2022-11-21T18:08:39;3.63;;;2.33;;
1164;SDS011;571;50.930;6.926;2022-11-21T18:11:08;5.63;;;2.50;;
1164;SDS011;571;50.930;6.926;2022-11-21T18:13:36;4.67;;;2.93;;
1164;SDS011;571;50.930;6.926;2022-11-21T18:16:04;4.57;;;2.83;;
1164;SDS011;571;50.930;6.926;2022-11-21T18:18:32;5.10;;;3.50;;
1164;SDS011;571;50.930;6.926;2022-11-21T18:21:02;4.23;;;2.90;;
1164;SDS011;571;50.930;6.926;2022-11-21T18:23:29;6.40;;;2.77;;
1164;SDS011;571;50.930;6.926;2022-11-21T18:25:59;3.77;;;2.60;;
1164;SDS011;571;50.930;6.926;2022-11-21T18:28:27;4.67;;;2.93;;
1164;SDS011;571;50.930;6.926;2022-11-21T18:31:01;5.07;;;3.00;;
1164;SDS011;571;50.930;6.926;2022-11-21T18:33:29;7.80;;;2.90;;
1164;SDS011;571;50.930;6.926;2022-11-21T18:35:57;7.53;;;3.60;;
1164;SDS011;571;50.930;6.926;2022-11-21T18:38:26;6.40;;;2.57;;
1164;SDS011;571;50.930;6.926;2022-11-21T18:40:55;4.33;;;2.43;;
1164;SDS011;571;50.930;6.926;2022-11-21T18:43:27;3.73;;;2.60;;
1164;SDS011;571;50.930;6.926;2022-11-21T18:46:00;7.47;;;2.23;;
1164;SDS011;571;50.930;6.926;2022-11-21T18:48:27;4.90;;;2.90;;
1164;SDS011;571;50.930;6.926;2022-11-21T18:50:54;4.90;;;3.70;;
1164;SDS011;571;50.930;6.926;2022-11-21T18:53:20;9.83;;;3.50;;
1164;SDS011;571;50.930;6.926;2022-11-21T18:55:48;6.50;;;3.00;;
1164;SDS011;571;50.930;6.926;2022-11-21T18:58:15;6.93;;;3.47;;
1164;SDS011;571;50.930;6.926;2022-11-21T19:00:42;6.70;;;3.53;;
1164;SDS011;571;50.930;6.926;2022-11-21T19:03:08;6.53;;;3.40;;
1164;SDS011;571;50.930;6.926;2022-11-21T19:05:38;10.17;;;6.00;;
1164;SDS011;571;50.930;6.926;2022-11-21T19:08:05;6.03;;;3.10;;
1164;SDS011;571;50.930;6.926;2022-11-21T19:10:34;3.20;;;2.90;;
1164;SDS011;571;50.930;6.926;2022-11-21T19:13:02;4.33;;;3.00;;
1164;SDS011;571;50.930;6.926;2022-11-21T19:15:29;4.90;;;3.57;;
1164;SDS011;571;50.930;6.926;2022-11-21T19:17:56;6.10;;;3.50;;
1164;SDS011;571;50.930;6.926;2022-11-21T19:20:23;7.87;;;3.27;;
1164;SDS011;571;50.930;6.926;2022-11-21T19:22:49;6.10;;;3.40;;
1164;SDS011;571;50.930;6.926;2022-11-21T19:25:17;8.67;;;3.93;;
1164;SDS011;571;50.930;6.926;2022-11-21T19:27:44;7.60;;;3.00;;
1164;SDS011;571;50.930;6.926;2022-11-21T19:30:13;4.93;;;3.00;;
1164;SDS011;571;50.930;6.926;2022-11-21T19:32:40;7.63;;;3.70;;
1164;SDS011;571;50.930;6.926;2022-11-21T19:35:07;5.97;;;3.90;;
1164;SDS011;571;50.930;6.926;2022-11-21T19:37:34;4.90;;;3.27;;
1164;SDS011;571;50.930;6.926;2022-11-21T19:40:02;9.50;;;3.40;;
1164;SDS011;571;50.930;6.926;2022-11-21T19:42:30;4.97;;;3.30;;
1164;SDS011;571;50.930;6.926;2022-11-21T19:44:57;6.73;;;3.57;;
1164;SDS011;571;50.930;6.926;2022-11-21T19:47:25;8.20;;;3.30;;
1164;SDS011;571;50.930;6.926;2022-11-21T19:49:52;5.73;;;3.83;;
1164;SDS011;571;50.930;6.926;2022-11-21T19:52:20;10.30;;;4.07;;
1164;SDS011;571;50.930;6.926;2022-11-21T19:54:46;2.50;;;2.30;;
1164;SDS011;571;50.930;6.926;2022-11-21T19:57:13;6.63;;;4.13;;
1164;SDS011;571;50.930;6.926;2022-11-21T19:59:40;13.37;;;3.63;;
1164;SDS011;571;50.930;6.926;2022-11-21T20:02:08;8.70;;;3.90;;
1164;SDS011;571;50.930;6.926;2022-11-21T20:04:42;6.67;;;3.40;;
1164;SDS011;571;50.930;6.926;2022-11-21T20:07:09;6.47;;;4.73;;
1164;SDS011;571;50.930;6.926;2022-11-21T20:09:36;6.63;;;3.03;;
1164;SDS011;571;50.930;6.926;2022-11-21T20:12:04;5.20;;;3.93;;
1164;SDS011;571;50.930;6.926;2022-11-21T20:14:31;8.50;;;2.70;;
1164;SDS011;571;50.930;6.926;2022-11-21T20:16:57;12.00;;;3.80;;
1164;SDS011;571;50.930;6.926;2022-11-21T20:19:24;7.53;;;3.17;;
1164;SDS011;571;50.930;6.926;2022-11-21T20:21:53;6.13;;;3.67;;
1164;SDS011;571;50.930;6.926;2022-11-21T20:24:20;8.40;;;3.10;;
1164;SDS011;571;50.930;6.926;2022-11-21T20:26:47;8.43;;;3.83;;
1164;SDS011;571;50.930;6.926;2022-11-21T20:29:14;4.60;;;3.00;;
1164;SDS011;571;50.930;6.926;2022-11-21T20:31:41;4.43;;;2.90;;
1164;SDS011;571;50.930;6.926;2022-11-21T20:34:09;8.70;;;3.07;;
1164;SDS011;571;50.930;6.926;2022-11-21T20:36:37;8.53;;;2.93;;
1164;SDS011;571;50.930;6.926;2022-11-21T20:39:06;7.93;;;3.50;;
1164;SDS011;571;50.930;6.926;2022-11-21T20:41:37;5.10;;;2.90;;
1164;SDS011;571;50.930;6.926;2022-11-21T20:44:05;4.23;;;3.60;;
1164;SDS011;571;50.930;6.926;2022-11-21T20:46:33;7.50;;;2.90;;
1164;SDS011;571;50.930;6.926;2022-11-21T20:49:00;13.93;;;4.23;;
1164;SDS011;571;50.930;6.926;2022-11-21T20:51:27;6.83;;;2.60;;
1164;SDS011;571;50.930;6.926;2022-11-21T20:53:54;11.53;;;2.90;;
1164;SDS011;571;50.930;6.926;2022-11-21T20:56:22;6.97;;;4.73;;
1164;SDS011;571;50.930;6.926;2022-11-21T20:58:49;10.30;;;3.47;;